createdAt,value
2023-04-07T00:02:17.634Z,4.19
2023-04-07T00:04:46.898Z,4.13
2023-04-07T00:07:15.147Z,4.06
2023-04-07T00:09:43.331Z,4.00
2023-04-07T00:12:11.501Z,3.92
2023-04-07T00:14:39.885Z,3.86
2023-04-07T00:17:08.048Z,3.79
2023-04-07T00:19:36.435Z,3.72
2023-04-07T00:22:04.714Z,3.66
2023-04-07T00:24:34.638Z,3.59
2023-04-07T00:27:03.640Z,3.54
2023-04-07T00:29:31.898Z,3.49
2023-04-07T00:32:00.499Z,3.44
2023-04-07T00:34:28.965Z,3.38
2023-04-07T00:36:57.644Z,3.31
2023-04-07T00:39:27.827Z,3.22
2023-04-07T00:41:56.652Z,3.13
2023-04-07T00:44:25.039Z,3.03
2023-04-07T00:46:53.441Z,2.93
2023-04-07T00:49:21.792Z,2.85
2023-04-07T00:51:50.374Z,2.75
2023-04-07T00:54:19.372Z,2.65
2023-04-07T00:56:47.750Z,2.55
2023-04-07T00:59:16.228Z,2.47
2023-04-07T01:02:00.035Z,2.39
2023-04-07T01:05:07.915Z,2.30
2023-04-07T01:08:01.559Z,2.19
2023-04-07T01:10:42.005Z,2.12
2023-04-07T01:13:33.831Z,2.05
2023-04-07T01:16:17.055Z,1.96
2023-04-07T01:18:54.554Z,1.89
2023-04-07T01:21:29.086Z,1.83
2023-04-07T01:24:25.204Z,1.77
2023-04-07T01:27:03.053Z,1.71
2023-04-07T01:29:34.564Z,1.65
2023-04-07T01:32:06.569Z,1.61
2023-04-07T01:34:37.462Z,1.56
2023-04-07T01:37:07.854Z,1.54
2023-04-07T01:39:38.764Z,1.54
2023-04-07T01:42:08.666Z,1.54
2023-04-07T01:44:38.688Z,1.56
2023-04-07T01:47:07.272Z,1.58
2023-04-07T01:49:37.982Z,1.62
2023-04-07T01:52:07.452Z,1.67
2023-04-07T01:54:36.273Z,1.71
2023-04-07T01:57:04.766Z,1.77
2023-04-07T01:59:33.444Z,1.82
2023-04-07T02:02:02.547Z,1.89
2023-04-07T02:04:53.860Z,1.95
2023-04-07T02:07:50.705Z,2.04
2023-04-07T02:10:24.202Z,2.13
2023-04-07T02:12:55.788Z,2.19
2023-04-07T02:15:25.157Z,2.25
2023-04-07T02:17:56.518Z,2.29
2023-04-07T02:20:25.193Z,2.34
2023-04-07T02:22:56.068Z,2.38
2023-04-07T02:25:30.921Z,2.40
2023-04-07T02:28:01.473Z,2.43
2023-04-07T02:30:29.972Z,2.46
2023-04-07T02:32:58.582Z,2.47
2023-04-07T02:35:27.244Z,2.50
2023-04-07T02:37:55.638Z,2.52
2023-04-07T02:40:24.214Z,2.55
2023-04-07T02:42:54.941Z,2.58
2023-04-07T02:45:24.547Z,2.62
2023-04-07T02:47:52.863Z,2.65
2023-04-07T02:50:21.407Z,2.69
2023-04-07T02:52:49.991Z,2.73
2023-04-07T02:55:18.785Z,2.77
2023-04-07T02:57:47.260Z,2.81
2023-04-07T03:00:35.830Z,2.88
2023-04-07T03:03:11.599Z,2.93
2023-04-07T03:05:43.423Z,3.00
2023-04-07T03:08:13.048Z,3.06
2023-04-07T03:10:41.924Z,3.13
2023-04-07T03:13:10.302Z,3.18
2023-04-07T03:15:39.302Z,3.23
2023-04-07T03:18:07.635Z,3.26
2023-04-07T03:20:36.680Z,3.31
2023-04-07T03:23:10.271Z,3.37
2023-04-07T03:25:38.755Z,3.40
2023-04-07T03:28:07.543Z,3.40
2023-04-07T03:30:37.780Z,3.41
2023-04-07T03:33:06.324Z,3.40
2023-04-07T03:35:35.345Z,3.39
2023-04-07T03:38:04.748Z,3.38
2023-04-07T03:40:33.946Z,3.37
2023-04-07T03:43:02.429Z,3.37
2023-04-07T03:45:31.325Z,3.35
2023-04-07T03:47:59.764Z,3.32
2023-04-07T03:50:28.183Z,3.29
2023-04-07T03:53:10.175Z,3.28
2023-04-07T03:55:38.762Z,3.28
2023-04-07T03:58:13.771Z,3.27
2023-04-07T04:00:42.378Z,3.28
2023-04-07T04:03:11.965Z,3.30
2023-04-07T04:05:54.632Z,3.33
2023-04-07T04:08:27.693Z,3.37
2023-04-07T04:10:56.195Z,3.41
2023-04-07T04:13:25.987Z,3.46
2023-04-07T04:15:55.738Z,3.51
2023-04-07T04:18:24.293Z,3.55
2023-04-07T04:20:54.300Z,3.61
2023-04-07T04:23:22.686Z,3.65
2023-04-07T04:25:53.516Z,3.70
2023-04-07T04:28:22.199Z,3.75
2023-04-07T04:30:51.703Z,3.78
2023-04-07T04:33:20.600Z,3.82
2023-04-07T04:35:56.964Z,3.84
2023-04-07T04:38:26.365Z,3.85
2023-04-07T04:41:08.272Z,3.87
2023-04-07T04:43:36.583Z,3.87
2023-04-07T04:46:05.840Z,3.88
2023-04-07T04:48:38.008Z,3.89
2023-04-07T04:51:08.030Z,3.89
2023-04-07T04:53:37.330Z,3.90
2023-04-07T04:56:07.349Z,3.91
2023-04-07T04:58:46.220Z,3.93
2023-04-07T05:01:20.054Z,3.96
2023-04-07T05:03:54.740Z,4.00
2023-04-07T05:06:27.791Z,4.04
2023-04-07T05:08:58.216Z,4.08
2023-04-07T05:11:28.655Z,4.13
2023-04-07T05:13:57.740Z,4.18
2023-04-07T05:16:26.864Z,4.25
2023-04-07T05:18:56.180Z,4.32
2023-04-07T05:23:57.095Z,4.47
2023-04-07T05:26:26.307Z,4.54
2023-04-07T05:28:55.286Z,4.64
2023-04-07T05:31:25.662Z,4.76
2023-04-07T05:33:56.756Z,4.85
2023-04-07T05:36:27.950Z,4.94
2023-04-07T05:38:57.825Z,5.06
2023-04-07T05:41:26.605Z,5.27
2023-04-07T05:43:55.611Z,5.62
2023-04-07T05:46:23.975Z,5.90
2023-04-07T05:48:56.040Z,6.09
2023-04-07T05:51:26.480Z,6.30
2023-04-07T05:53:55.565Z,6.59
2023-04-07T05:56:24.967Z,6.91
2023-04-07T05:58:53.860Z,7.17
2023-04-07T06:01:22.362Z,7.46
2023-04-07T06:03:50.921Z,7.64
2023-04-07T06:06:27.117Z,7.84
2023-04-07T06:08:55.575Z,8.07
2023-04-07T06:11:25.693Z,8.26
2023-04-07T06:13:54.580Z,8.40
2023-04-07T06:16:22.872Z,8.54
2023-04-07T06:18:51.540Z,8.76
2023-04-07T06:21:19.819Z,9.02
2023-04-07T06:23:48.398Z,9.28
2023-04-07T06:26:16.884Z,9.53
2023-04-07T06:28:45.676Z,9.69
2023-04-07T06:31:13.992Z,9.83
2023-04-07T06:33:42.651Z,9.93
2023-04-07T06:36:12.146Z,10.01
2023-04-07T06:38:41.049Z,10.14
2023-04-07T06:41:16.998Z,10.24
2023-04-07T06:43:47.824Z,10.36
2023-04-07T06:46:16.486Z,10.45
2023-04-07T06:48:45.092Z,10.50
2023-04-07T06:51:13.577Z,10.73
2023-04-07T06:53:42.162Z,10.92
2023-04-07T06:56:12.030Z,11.13
2023-04-07T06:58:40.803Z,11.54
2023-04-07T07:01:09.154Z,11.97
2023-04-07T07:03:37.737Z,12.31
2023-04-07T07:06:06.557Z,12.52
2023-04-07T07:08:34.797Z,12.69
2023-04-07T07:11:03.273Z,12.81
2023-04-07T07:13:31.556Z,12.82
2023-04-07T07:16:00.087Z,13.02
2023-04-07T07:18:31.588Z,13.20
2023-04-07T07:21:00.377Z,13.48
2023-04-07T07:23:28.552Z,13.64
2023-04-07T07:25:56.927Z,13.73
2023-04-07T07:28:25.509Z,13.90
2023-04-07T07:30:53.825Z,14.14
2023-04-07T07:33:23.187Z,14.22
2023-04-07T07:35:51.832Z,14.17
2023-04-07T07:38:20.590Z,14.04
2023-04-07T07:40:48.757Z,13.97
2023-04-07T07:43:18.248Z,13.98
2023-04-07T07:45:46.826Z,14.03
2023-04-07T07:48:15.670Z,14.02
2023-04-07T07:50:45.221Z,14.08
2023-04-07T07:53:13.396Z,14.09
2023-04-07T07:55:41.891Z,13.82
2023-04-07T07:58:10.357Z,13.64
2023-04-07T08:00:38.749Z,13.62
2023-04-07T08:03:07.427Z,13.46
2023-04-07T08:05:36.083Z,13.51
2023-04-07T08:08:04.292Z,13.53
2023-04-07T08:10:32.880Z,13.39
2023-04-07T08:13:01.415Z,13.07
2023-04-07T08:15:29.936Z,12.76
2023-04-07T08:18:00.256Z,12.68
2023-04-07T08:20:28.744Z,12.45
2023-04-07T08:22:57.633Z,12.40
2023-04-07T08:25:26.521Z,12.37
2023-04-07T08:27:55.721Z,12.28
2023-04-07T08:30:24.244Z,12.52
2023-04-07T08:32:52.540Z,12.80
2023-04-07T08:35:21.068Z,13.07
2023-04-07T08:37:50.592Z,13.41
2023-04-07T08:40:18.856Z,13.80
2023-04-07T08:42:49.484Z,14.04
2023-04-07T08:45:19.589Z,14.52
2023-04-07T08:47:53.844Z,14.95
2023-04-07T08:50:25.473Z,15.34
2023-04-07T08:53:00.825Z,15.74
2023-04-07T08:55:29.193Z,15.85
2023-04-07T08:57:59.589Z,16.03
2023-04-07T09:00:30.143Z,16.13
2023-04-07T09:03:00.671Z,16.45
2023-04-07T09:05:31.009Z,16.69
2023-04-07T09:07:59.579Z,16.64
2023-04-07T09:10:28.272Z,16.38
2023-04-07T09:12:59.054Z,16.11
2023-04-07T09:15:31.995Z,16.18
2023-04-07T09:18:00.331Z,16.28
2023-04-07T09:20:28.649Z,16.43
2023-04-07T09:22:57.028Z,16.49
2023-04-07T09:25:29.874Z,16.37
2023-04-07T09:28:00.242Z,16.49
2023-04-07T09:30:30.266Z,16.54
2023-04-07T09:32:59.911Z,16.61
2023-04-07T09:35:28.920Z,16.30
2023-04-07T09:38:08.898Z,16.27
2023-04-07T09:40:37.814Z,16.24
2023-04-07T09:43:07.615Z,16.27
2023-04-07T09:45:37.701Z,16.17
2023-04-07T09:48:19.381Z,15.88
2023-04-07T09:50:52.217Z,15.32
2023-04-07T09:53:23.204Z,15.08
2023-04-07T09:55:52.294Z,15.13
2023-04-07T09:58:21.024Z,15.57
2023-04-07T10:00:49.616Z,15.97
2023-04-07T10:03:18.203Z,16.12
2023-04-07T10:05:47.188Z,16.19
2023-04-07T10:08:15.891Z,15.94
2023-04-07T10:10:44.670Z,15.61
2023-04-07T10:13:13.358Z,15.23
2023-04-07T10:15:42.042Z,14.82
2023-04-07T10:18:11.145Z,14.26
2023-04-07T10:20:43.525Z,13.96
2023-04-07T10:23:32.059Z,13.62
2023-04-07T10:26:02.642Z,13.23
2023-04-07T10:28:33.565Z,13.05
2023-04-07T10:31:03.941Z,13.15
2023-04-07T10:33:52.037Z,13.49
2023-04-07T10:36:22.352Z,13.51
2023-04-07T10:39:09.139Z,13.42
2023-04-07T10:41:39.207Z,13.45
2023-04-07T10:44:09.640Z,13.43
2023-04-07T10:46:49.736Z,13.51
2023-04-07T10:49:21.184Z,13.73
2023-04-07T10:52:22.338Z,13.90
2023-04-07T10:55:28.607Z,13.77
2023-04-07T10:58:16.537Z,13.50
2023-04-07T11:00:57.310Z,13.32
2023-04-07T11:03:26.086Z,13.10
2023-04-07T11:06:14.519Z,12.94
2023-04-07T11:08:44.208Z,12.82
2023-04-07T11:11:15.870Z,12.68
2023-04-07T11:13:51.374Z,12.43
2023-04-07T11:16:34.659Z,12.32
2023-04-07T11:19:02.864Z,12.26
2023-04-07T11:21:31.127Z,12.35
2023-04-07T11:23:59.413Z,12.70
2023-04-07T11:26:28.099Z,12.82
2023-04-07T11:28:59.153Z,12.75
2023-04-07T11:31:29.468Z,12.59
2023-04-07T11:34:00.213Z,12.40
2023-04-07T11:36:33.397Z,12.30
2023-04-07T11:39:02.569Z,12.36
2023-04-07T11:41:33.990Z,12.44
2023-04-07T11:44:11.146Z,12.70
2023-04-07T11:46:57.026Z,13.06
2023-04-07T11:49:30.169Z,13.37
2023-04-07T11:52:03.586Z,13.60
2023-04-07T11:54:53.496Z,13.77
2023-04-07T11:57:29.552Z,14.04
2023-04-07T12:00:09.297Z,14.27
2023-04-07T12:02:37.976Z,14.37
2023-04-07T12:05:07.453Z,14.56
2023-04-07T12:07:36.683Z,14.56
2023-04-07T12:10:22.553Z,14.48
2023-04-07T12:12:51.772Z,14.30
2023-04-07T12:15:20.818Z,13.92
2023-04-07T12:17:49.692Z,13.52
2023-04-07T12:20:19.274Z,13.29
2023-04-07T12:22:47.877Z,13.10
2023-04-07T12:25:16.020Z,12.90
2023-04-07T12:27:44.162Z,12.65
2023-04-07T12:30:13.540Z,12.45
2023-04-07T12:32:42.119Z,12.31
2023-04-07T12:35:10.390Z,12.23
2023-04-07T12:37:38.738Z,12.12
2023-04-07T12:40:07.782Z,12.01
2023-04-07T12:42:35.912Z,11.94
2023-04-07T12:45:04.796Z,11.89
2023-04-07T12:47:34.169Z,11.83
2023-04-07T12:50:02.994Z,11.83
2023-04-07T12:52:32.288Z,11.87
2023-04-07T12:55:00.461Z,11.80
2023-04-07T12:57:29.071Z,11.70
2023-04-07T12:59:57.215Z,11.56
2023-04-07T13:02:26.072Z,11.37
2023-04-07T13:04:54.274Z,11.27
2023-04-07T13:07:22.561Z,11.24
2023-04-07T13:09:50.838Z,11.15
2023-04-07T13:12:19.218Z,11.03
2023-04-07T13:14:59.306Z,10.98
2023-04-07T13:17:29.225Z,10.92
2023-04-07T13:19:57.570Z,10.82
2023-04-07T13:22:26.042Z,10.75
2023-04-07T13:24:54.522Z,10.79
2023-04-07T13:27:22.707Z,10.96
2023-04-07T13:29:50.875Z,11.23
2023-04-07T13:32:19.287Z,11.50
2023-04-07T13:34:47.635Z,11.87
2023-04-07T13:37:16.828Z,12.11
2023-04-07T13:39:45.731Z,12.21
2023-04-07T13:42:17.006Z,12.23
2023-04-07T13:44:50.629Z,12.12
2023-04-07T13:47:21.854Z,12.02
2023-04-07T13:49:52.039Z,11.91
2023-04-07T13:52:20.520Z,11.74
2023-04-07T13:54:48.802Z,11.54
2023-04-07T13:57:21.089Z,11.33
2023-04-07T13:59:52.244Z,11.16
2023-04-07T14:02:21.633Z,11.04
2023-04-07T14:04:50.200Z,10.93
2023-04-07T14:07:18.475Z,10.86
2023-04-07T14:09:48.398Z,10.78
2023-04-07T14:12:16.669Z,10.76
2023-04-07T14:14:44.856Z,10.76
2023-04-07T14:17:13.225Z,10.78
2023-04-07T14:19:42.420Z,10.80
2023-04-07T14:22:11.313Z,10.79
2023-04-07T14:24:39.586Z,10.80
2023-04-07T14:27:07.965Z,10.78
2023-04-07T14:29:36.404Z,10.72
2023-04-07T14:32:04.925Z,10.67
2023-04-07T14:34:33.114Z,10.63
2023-04-07T14:37:01.600Z,10.52
2023-04-07T14:39:30.272Z,10.41
2023-04-07T14:41:58.544Z,10.31
2023-04-07T14:44:29.290Z,10.18
2023-04-07T14:46:57.541Z,10.10
2023-04-07T14:49:28.614Z,10.03
2023-04-07T14:51:57.488Z,9.96
2023-04-07T14:54:25.974Z,9.85
2023-04-07T14:56:54.149Z,9.76
2023-04-07T14:59:22.566Z,9.68
2023-04-07T15:01:51.890Z,9.59
2023-04-07T15:04:20.200Z,9.50
2023-04-07T15:06:48.484Z,9.43
2023-04-07T15:09:16.760Z,9.40
2023-04-07T15:11:46.311Z,9.35
2023-04-07T15:14:14.717Z,9.31
2023-04-07T15:16:42.828Z,9.26
2023-04-07T15:19:10.992Z,9.20
2023-04-07T15:21:39.476Z,9.12
2023-04-07T15:24:07.756Z,9.03
2023-04-07T15:26:36.131Z,8.97
2023-04-07T15:29:04.421Z,8.94
2023-04-07T15:31:32.951Z,8.90
2023-04-07T15:34:01.369Z,8.88
2023-04-07T15:36:29.546Z,8.85
2023-04-07T15:39:02.326Z,8.80
2023-04-07T15:41:30.927Z,8.79
2023-04-07T15:44:00.211Z,8.75
2023-04-07T15:46:28.346Z,8.73
2023-04-07T15:48:56.764Z,8.72
2023-04-07T15:51:25.043Z,8.70
2023-04-07T15:53:53.624Z,8.65
2023-04-07T15:56:24.799Z,8.62
2023-04-07T15:58:53.555Z,8.58
2023-04-07T16:01:22.099Z,8.48
2023-04-07T16:03:54.764Z,8.39
2023-04-07T16:06:23.514Z,8.32
2023-04-07T16:08:51.680Z,8.22
2023-04-07T16:11:21.491Z,8.14
2023-04-07T16:13:49.957Z,8.09
2023-04-07T16:16:19.396Z,8.05
2023-04-07T16:18:48.272Z,8.02
2023-04-07T16:21:16.750Z,8.00
2023-04-07T16:23:45.133Z,7.98
2023-04-07T16:26:13.921Z,7.93
2023-04-07T16:28:44.342Z,7.88
2023-04-07T16:31:12.631Z,7.83
2023-04-07T16:33:41.309Z,7.79
2023-04-07T16:36:09.648Z,7.76
2023-04-07T16:38:38.438Z,7.73
2023-04-07T16:41:08.088Z,7.72
2023-04-07T16:43:36.671Z,7.70
2023-04-07T16:46:08.378Z,7.69
2023-04-07T16:48:36.617Z,7.67
2023-04-07T16:51:05.504Z,7.65
2023-04-07T16:53:33.570Z,7.64
2023-04-07T16:56:01.852Z,7.63
2023-04-07T16:58:30.229Z,7.61
2023-04-07T17:00:58.447Z,7.59
2023-04-07T17:03:26.986Z,7.58
2023-04-07T17:05:55.364Z,7.57
2023-04-07T17:08:25.988Z,7.56
2023-04-07T17:10:54.381Z,7.55
2023-04-07T17:13:22.820Z,7.52
2023-04-07T17:15:51.322Z,7.51
2023-04-07T17:18:19.636Z,7.49
2023-04-07T17:20:47.783Z,7.48
2023-04-07T17:23:16.366Z,7.48
2023-04-07T17:25:44.744Z,7.48
2023-04-07T17:28:13.132Z,7.48
2023-04-07T17:30:41.707Z,7.46
2023-04-07T17:33:09.922Z,7.45
2023-04-07T17:35:40.752Z,7.44
2023-04-07T17:38:09.201Z,7.43
2023-04-07T17:40:37.372Z,7.43
2023-04-07T17:43:05.682Z,7.43
2023-04-07T17:45:34.146Z,7.43
2023-04-07T17:48:03.865Z,7.44
2023-04-07T17:50:32.254Z,7.43
2023-04-07T17:53:01.017Z,7.43
2023-04-07T17:55:29.292Z,7.43
2023-04-07T17:58:01.664Z,7.42
2023-04-07T18:00:30.248Z,7.41
2023-04-07T18:02:59.398Z,7.39
2023-04-07T18:05:31.056Z,7.39
2023-04-07T18:07:59.992Z,7.38
2023-04-07T18:10:29.498Z,7.37
2023-04-07T18:12:59.160Z,7.37
2023-04-07T18:15:27.996Z,7.37
2023-04-07T18:17:56.378Z,7.38
2023-04-07T18:20:24.964Z,7.37
2023-04-07T18:22:55.653Z,7.36
2023-04-07T18:25:25.818Z,7.35
2023-04-07T18:27:54.600Z,7.34
2023-04-07T18:30:23.185Z,7.32
2023-04-07T18:32:52.412Z,7.32
2023-04-07T18:35:20.863Z,7.32
2023-04-07T18:37:49.969Z,7.31
2023-04-07T18:40:18.456Z,7.30
2023-04-07T18:42:46.912Z,7.29
2023-04-07T18:45:15.213Z,7.28
2023-04-07T18:47:43.548Z,7.28
2023-04-07T18:50:12.182Z,7.28
2023-04-07T18:52:41.468Z,7.28
2023-04-07T18:55:11.309Z,7.27
2023-04-07T18:57:40.474Z,7.26
2023-04-07T19:00:10.096Z,7.25
2023-04-07T19:02:44.402Z,7.24
2023-04-07T19:05:14.220Z,7.23
2023-04-07T19:07:42.504Z,7.22
2023-04-07T19:10:11.184Z,7.21
2023-04-07T19:12:40.175Z,7.21
2023-04-07T19:15:10.328Z,7.20
2023-04-07T19:17:39.419Z,7.19
2023-04-07T19:20:11.459Z,7.19
2023-04-07T19:22:39.931Z,7.19
2023-04-07T19:25:08.801Z,7.18
2023-04-07T19:27:37.204Z,7.18
2023-04-07T19:30:06.503Z,7.17
2023-04-07T19:32:34.823Z,7.17
2023-04-07T19:35:03.606Z,7.16
2023-04-07T19:37:31.852Z,7.14
2023-04-07T19:40:03.268Z,7.12
2023-04-07T19:42:32.504Z,7.10
2023-04-07T19:45:02.421Z,7.08
2023-04-07T19:47:31.435Z,7.06
2023-04-07T19:49:59.684Z,7.03
2023-04-07T19:52:34.345Z,7.01
2023-04-07T19:55:04.245Z,7.00
2023-04-07T19:57:34.349Z,6.99
2023-04-07T20:00:04.432Z,6.98
2023-04-07T20:02:32.884Z,6.95
2023-04-07T20:05:01.731Z,6.94
2023-04-07T20:07:31.645Z,6.92
2023-04-07T20:10:00.143Z,6.92
2023-04-07T20:12:28.506Z,6.90
2023-04-07T20:14:56.684Z,6.90
2023-04-07T20:17:25.092Z,6.89
2023-04-07T20:19:56.205Z,6.87
2023-04-07T20:22:24.587Z,6.85
2023-04-07T20:24:52.685Z,6.85
2023-04-07T20:27:21.464Z,6.83
2023-04-07T20:29:49.727Z,6.82
2023-04-07T20:32:19.542Z,6.80
2023-04-07T20:34:48.533Z,6.80
2023-04-07T20:37:17.431Z,6.79
2023-04-07T20:39:45.901Z,6.77
2023-04-07T20:42:14.900Z,6.77
2023-04-07T20:44:43.425Z,6.76
2023-04-07T20:47:13.129Z,6.75
2023-04-07T20:49:43.704Z,6.74
2023-04-07T20:52:12.714Z,6.73
2023-04-07T20:54:42.833Z,6.71
2023-04-07T20:57:11.229Z,6.70
2023-04-07T20:59:40.013Z,6.68
2023-04-07T21:02:08.325Z,6.66
2023-04-07T21:04:37.683Z,6.64
2023-04-07T21:07:06.792Z,6.63
2023-04-07T21:09:35.271Z,6.62
2023-04-07T21:12:04.562Z,6.61
2023-04-07T21:14:32.866Z,6.60
2023-04-07T21:17:01.227Z,6.59
2023-04-07T21:19:29.409Z,6.57
2023-04-07T21:21:57.585Z,6.56
2023-04-07T21:24:26.047Z,6.55
2023-04-07T21:26:54.641Z,6.54
2023-04-07T21:29:22.810Z,6.53
2023-04-07T21:31:50.978Z,6.51
2023-04-07T21:34:19.257Z,6.50
2023-04-07T21:36:47.840Z,6.50
2023-04-07T21:39:16.218Z,6.49
2023-04-07T21:41:44.494Z,6.48
2023-04-07T21:44:13.487Z,6.48
2023-04-07T21:46:41.993Z,6.47
2023-04-07T21:49:10.152Z,6.46
2023-04-07T21:51:38.732Z,6.45
2023-04-07T21:54:07.823Z,6.45
2023-04-07T21:56:36.313Z,6.46
2023-04-07T21:59:04.794Z,6.45
2023-04-07T22:01:33.337Z,6.45
2023-04-07T22:04:02.312Z,6.44
2023-04-07T22:06:31.539Z,6.45
2023-04-07T22:09:02.246Z,6.44
2023-04-07T22:11:30.678Z,6.44
2023-04-07T22:13:59.159Z,6.43
2023-04-07T22:16:27.599Z,6.43
2023-04-07T22:18:55.814Z,6.42
2023-04-07T22:21:24.299Z,6.41
2023-04-07T22:23:52.783Z,6.40
2023-04-07T22:26:21.522Z,6.39
2023-04-07T22:28:50.036Z,6.39
2023-04-07T22:31:18.362Z,6.39
2023-04-07T22:33:46.905Z,6.38
2023-04-07T22:36:15.695Z,6.38
2023-04-07T22:38:44.382Z,6.38
2023-04-07T22:41:12.757Z,6.37
2023-04-07T22:43:41.037Z,6.36
2023-04-07T22:46:09.430Z,6.34
2023-04-07T22:48:37.591Z,6.33
2023-04-07T22:51:05.761Z,6.30
2023-04-07T22:53:34.243Z,6.29
2023-04-07T22:56:02.728Z,6.27
2023-04-07T22:58:31.409Z,6.26
2023-04-07T23:00:59.737Z,6.25
2023-04-07T23:03:28.454Z,6.24
2023-04-07T23:05:56.980Z,6.23
2023-04-07T23:08:25.604Z,6.24
2023-04-07T23:10:54.132Z,6.24
2023-04-07T23:13:22.404Z,6.25
2023-04-07T23:15:50.899Z,6.27
2023-04-07T23:18:19.123Z,6.29
2023-04-07T23:20:52.128Z,6.31
2023-04-07T23:23:20.427Z,6.34
2023-04-07T23:25:49.008Z,6.36
2023-04-07T23:28:17.387Z,6.38
2023-04-07T23:30:45.776Z,6.38
2023-04-07T23:33:14.254Z,6.38
2023-04-07T23:35:42.562Z,6.36
2023-04-07T23:38:11.216Z,6.35
2023-04-07T23:40:39.655Z,6.34
2023-04-07T23:43:07.976Z,6.29
2023-04-07T23:45:36.825Z,6.25
2023-04-07T23:48:06.117Z,6.20
2023-04-07T23:50:34.342Z,6.16
2023-04-07T23:53:03.131Z,6.12
2023-04-07T23:55:31.512Z,6.09
2023-04-07T23:57:59.897Z,6.05
